createdAt,value
2023-03-02T00:02:32.251Z,101442.69
2023-03-02T00:06:35.923Z,101437.47
2023-03-02T00:10:38.497Z,101435.75
2023-03-02T00:14:40.546Z,101442.59
2023-03-02T00:18:42.525Z,101439.06
2023-03-02T00:22:46.023Z,101435.59
2023-03-02T00:26:47.943Z,101436.41
2023-03-02T00:30:49.926Z,101432.16
2023-03-02T00:34:52.134Z,101434.59
2023-03-02T00:38:54.080Z,101439.56
2023-03-02T00:42:56.049Z,101433.63
2023-03-02T00:46:58.230Z,101432.84
2023-03-02T00:51:00.984Z,101438.84
2023-03-02T00:55:03.086Z,101430.19
2023-03-02T00:59:26.474Z,101437.03
2023-03-02T01:03:44.967Z,101429.19
2023-03-02T01:07:48.068Z,101423.13
2023-03-02T01:11:50.483Z,101432.59
2023-03-02T01:16:03.528Z,101418.00
2023-03-02T01:20:08.760Z,101427.41
2023-03-02T01:24:11.246Z,101421.31
2023-03-02T01:28:13.158Z,101424.75
2023-03-02T01:32:15.068Z,101422.19
2023-03-02T01:36:17.216Z,101417.16
2023-03-02T01:40:19.438Z,101424.16
2023-03-02T01:44:48.063Z,101416.94
2023-03-02T01:48:57.324Z,101426.31
2023-03-02T01:53:08.056Z,101429.22
2023-03-02T01:57:10.745Z,101426.81
2023-03-02T02:01:15.844Z,101424.38
2023-03-02T02:05:22.894Z,101436.47
2023-03-02T02:09:26.867Z,101437.38
2023-03-02T02:13:30.263Z,101440.88
2023-03-02T02:17:32.729Z,101437.44
2023-03-02T02:21:34.654Z,101439.22
2023-03-02T02:25:53.038Z,101438.38
2023-03-02T02:29:58.172Z,101438.41
2023-03-02T02:34:24.075Z,101425.50
2023-03-02T02:38:27.829Z,101431.53
2023-03-02T02:42:32.986Z,101441.00
2023-03-02T02:46:35.386Z,101431.56
2023-03-02T02:50:38.135Z,101420.34
2023-03-02T02:54:43.616Z,101416.06
2023-03-02T02:58:51.974Z,101414.34
2023-03-02T03:03:03.150Z,101416.06
2023-03-02T03:07:06.812Z,101414.34
2023-03-02T03:11:10.472Z,101402.28
2023-03-02T03:15:13.859Z,101407.44
2023-03-02T03:19:25.040Z,101404.88
2023-03-02T03:23:28.198Z,101397.13
2023-03-02T03:27:30.911Z,101394.53
2023-03-02T03:31:33.779Z,101385.09
2023-03-02T03:35:38.104Z,101390.25
2023-03-02T03:39:40.619Z,101390.25
2023-03-02T03:43:43.092Z,101390.25
2023-03-02T03:47:45.880Z,101391.09
2023-03-02T03:51:48.514Z,101389.38
2023-03-02T03:55:50.941Z,101389.34
2023-03-02T03:59:54.020Z,101393.69
2023-03-02T04:03:56.234Z,101382.50
2023-03-02T04:08:01.974Z,101384.19
2023-03-02T04:12:05.959Z,101382.50
2023-03-02T04:16:08.801Z,101385.06
2023-03-02T04:20:16.876Z,101390.25
2023-03-02T04:24:22.966Z,101381.59
2023-03-02T04:28:26.775Z,101386.78
2023-03-02T04:32:29.006Z,101388.50
2023-03-02T04:36:33.748Z,101374.72
2023-03-02T04:40:38.298Z,101373.84
2023-03-02T04:44:40.277Z,101372.09
2023-03-02T04:48:41.884Z,101373.00
2023-03-02T04:52:44.046Z,101366.06
2023-03-02T04:56:49.546Z,101368.66
2023-03-02T05:00:51.686Z,101366.06
2023-03-02T05:04:53.774Z,101378.13
2023-03-02T05:08:59.760Z,101387.59
2023-03-02T05:13:02.769Z,101382.47
2023-03-02T05:17:05.011Z,101390.19
2023-03-02T05:21:07.002Z,101395.34
2023-03-02T05:25:09.568Z,101390.19
2023-03-02T05:29:11.593Z,101393.66
2023-03-02T05:33:14.100Z,101396.25
2023-03-02T05:37:16.004Z,101405.69
2023-03-02T05:41:18.262Z,101399.66
2023-03-02T05:45:30.081Z,101401.41
2023-03-02T05:49:31.758Z,101405.69
2023-03-02T05:53:33.746Z,101414.31
2023-03-02T05:57:36.009Z,101421.19
2023-03-02T06:01:38.801Z,101433.25
2023-03-02T06:05:40.852Z,101433.25
2023-03-02T06:09:42.928Z,101445.31
2023-03-02T06:13:45.842Z,101434.97
2023-03-02T06:17:48.218Z,101443.56
2023-03-02T06:21:50.369Z,101444.41
2023-03-02T06:25:52.328Z,101453.06
2023-03-02T06:29:54.635Z,101452.16
2023-03-02T06:33:56.551Z,101462.50
2023-03-02T06:37:58.499Z,101453.88
2023-03-02T06:42:00.680Z,101453.88
2023-03-02T06:46:02.942Z,101457.31
2023-03-02T06:50:05.920Z,101459.03
2023-03-02T06:54:08.344Z,101463.34
2023-03-02T06:58:13.151Z,101453.00
2023-03-02T07:02:15.218Z,101447.81
2023-03-02T07:06:17.303Z,101455.56
2023-03-02T07:10:19.581Z,101455.56
2023-03-02T07:14:21.611Z,101446.91
2023-03-02T07:18:23.879Z,101443.44
2023-03-02T07:22:25.787Z,101435.69
2023-03-02T07:26:27.845Z,101434.78
2023-03-02T07:30:30.118Z,101438.25
2023-03-02T07:34:32.195Z,101440.81
2023-03-02T07:38:34.582Z,101444.25
2023-03-02T07:42:36.607Z,101438.25
2023-03-02T07:46:38.871Z,101432.16
2023-03-02T07:50:41.026Z,101430.41
2023-03-02T07:54:43.125Z,101428.63
2023-03-02T07:58:45.095Z,101437.38
2023-03-02T08:02:47.047Z,101439.97
2023-03-02T08:06:49.184Z,101445.09
2023-03-02T08:10:51.193Z,101439.06
2023-03-02T08:14:53.285Z,101439.84
2023-03-02T08:18:58.636Z,101434.59
2023-03-02T08:23:02.082Z,101434.53
2023-03-02T08:27:04.492Z,101418.94
2023-03-02T08:31:08.042Z,101409.34
2023-03-02T08:35:10.234Z,101404.34
2023-03-02T08:39:12.268Z,101412.13
2023-03-02T08:43:14.213Z,101417.34
2023-03-02T08:47:16.236Z,101412.09
2023-03-02T08:51:22.565Z,101407.75
2023-03-02T08:55:24.708Z,101419.69
2023-03-02T08:59:26.885Z,101414.31
2023-03-02T09:03:28.836Z,101416.09
2023-03-02T09:07:30.783Z,101400.47
2023-03-02T09:11:33.726Z,101399.56
2023-03-02T09:15:36.048Z,101388.91
2023-03-02T09:19:44.336Z,101401.03
2023-03-02T09:23:46.605Z,101390.69
2023-03-02T09:27:48.765Z,101397.63
2023-03-02T09:31:51.195Z,101391.53
2023-03-02T09:35:53.261Z,101409.38
2023-03-02T09:39:55.304Z,101399.16
2023-03-02T09:44:16.037Z,101393.28
2023-03-02T09:48:31.706Z,101382.16
2023-03-02T09:52:40.388Z,101385.47
2023-03-02T09:56:48.341Z,101394.84
2023-03-02T10:00:51.770Z,101389.56
2023-03-02T10:04:56.144Z,101408.56
2023-03-02T10:08:58.567Z,101415.41
2023-03-02T10:13:03.258Z,101413.88
2023-03-02T10:17:35.518Z,101400.03
2023-03-02T10:21:40.375Z,101406.94
2023-03-02T10:25:48.817Z,101419.03
2023-03-02T10:30:03.371Z,101413.09
2023-03-02T10:34:05.613Z,101404.44
2023-03-02T10:38:14.468Z,101418.22
2023-03-02T10:42:38.047Z,101431.97
2023-03-02T10:46:46.324Z,101426.09
2023-03-02T10:50:54.114Z,101431.13
2023-03-02T10:55:12.623Z,101424.97
2023-03-02T10:59:29.535Z,101411.19
2023-03-02T11:03:33.227Z,101403.53
2023-03-02T11:07:34.864Z,101392.34
2023-03-02T11:11:37.351Z,101401.94
2023-03-02T11:15:48.253Z,101392.50
2023-03-02T11:19:52.601Z,101389.69
2023-03-02T11:24:10.493Z,101391.22
2023-03-02T11:28:22.298Z,101396.56
2023-03-02T11:32:34.534Z,101398.13
2023-03-02T11:36:58.744Z,101397.13
2023-03-02T11:41:11.260Z,101413.84
2023-03-02T11:45:13.539Z,101405.88
2023-03-02T11:49:25.067Z,101421.25
2023-03-02T11:53:39.733Z,101427.28
2023-03-02T11:57:52.112Z,101431.38
2023-03-02T12:01:56.783Z,101439.16
2023-03-02T12:06:05.250Z,101429.69
2023-03-02T12:10:24.380Z,101425.59
2023-03-02T12:14:38.006Z,101421.19
2023-03-02T12:18:47.134Z,101411.44
2023-03-02T12:22:49.138Z,101408.75
2023-03-02T12:27:02.005Z,101406.16
2023-03-02T12:31:05.831Z,101408.47
2023-03-02T12:35:07.663Z,101404.91
2023-03-02T12:39:25.602Z,101406.13
2023-03-02T12:43:34.783Z,101411.06
2023-03-02T12:47:41.449Z,101403.31
2023-03-02T12:58:16.901Z,101396.22
2023-03-02T13:02:24.358Z,101385.06
2023-03-02T13:06:32.024Z,101393.84
2023-03-02T13:10:39.139Z,101397.31
2023-03-02T13:14:45.512Z,101389.63
2023-03-02T13:18:49.930Z,101382.50
2023-03-02T13:22:52.430Z,101372.28
2023-03-02T13:26:56.696Z,101372.16
2023-03-02T13:31:19.871Z,101374.84
2023-03-02T13:35:26.670Z,101375.00
2023-03-02T13:39:31.507Z,101373.41
2023-03-02T13:43:38.313Z,101364.44
2023-03-02T13:47:43.740Z,101364.19
2023-03-02T13:51:47.625Z,101358.19
2023-03-02T13:55:50.600Z,101356.56
2023-03-02T13:59:52.706Z,101345.28
2023-03-02T14:03:56.454Z,101350.44
2023-03-02T14:08:00.606Z,101336.81
2023-03-02T14:12:02.677Z,101334.88
2023-03-02T14:16:04.981Z,101328.81
2023-03-02T14:20:10.160Z,101314.34
2023-03-02T14:24:12.359Z,101306.34
2023-03-02T14:28:32.838Z,101298.69
2023-03-02T14:32:34.932Z,101299.63
2023-03-02T14:36:37.061Z,101295.31
2023-03-02T14:40:39.083Z,101294.38
2023-03-02T14:44:43.041Z,101290.06
2023-03-02T14:48:45.009Z,101290.06
2023-03-02T14:52:51.648Z,101286.69
2023-03-02T14:56:53.676Z,101283.19
2023-03-02T15:00:55.736Z,101290.22
2023-03-02T15:04:57.853Z,101288.50
2023-03-02T15:09:01.119Z,101286.81
2023-03-02T15:13:04.166Z,101275.66
2023-03-02T15:17:06.654Z,101270.50
2023-03-02T15:21:15.177Z,101275.94
2023-03-02T15:25:17.509Z,101273.31
2023-03-02T15:29:20.629Z,101266.38
2023-03-02T15:33:22.829Z,101263.81
2023-03-02T15:37:24.781Z,101264.84
2023-03-02T15:41:26.884Z,101254.75
2023-03-02T15:45:28.902Z,101260.03
2023-03-02T15:49:32.866Z,101257.53
2023-03-02T15:53:38.292Z,101256.03
2023-03-02T15:57:40.517Z,101257.97
2023-03-02T16:01:42.517Z,101253.03
2023-03-02T16:05:44.989Z,101249.72
2023-03-02T16:09:47.283Z,101243.09
2023-03-02T16:13:51.768Z,101234.75
2023-03-02T16:17:53.665Z,101233.22
2023-03-02T16:21:55.742Z,101209.38
2023-03-02T16:26:07.360Z,101198.22
2023-03-02T16:30:09.917Z,101189.66
2023-03-02T16:34:12.198Z,101194.03
2023-03-02T16:38:14.176Z,101169.97
2023-03-02T16:42:16.207Z,101157.97
2023-03-02T16:46:19.255Z,101160.56
2023-03-02T16:50:21.395Z,101149.41
2023-03-02T16:54:23.772Z,101143.38
2023-03-02T16:58:25.913Z,101133.06
2023-03-02T17:02:29.375Z,101132.22
2023-03-02T17:06:31.768Z,101124.47
2023-03-02T17:10:33.883Z,101131.38
2023-03-02T17:14:35.917Z,101133.94
2023-03-02T17:18:38.597Z,101134.78
2023-03-02T17:22:40.668Z,101131.34
2023-03-02T17:26:42.935Z,101124.44
2023-03-02T17:30:45.256Z,101120.16
2023-03-02T17:34:47.640Z,101113.28
2023-03-02T17:38:49.785Z,101115.00
2023-03-02T17:42:54.569Z,101110.69
2023-03-02T17:46:57.673Z,101111.53
2023-03-02T17:50:59.710Z,101113.25
2023-03-02T17:55:01.616Z,101112.38
2023-03-02T17:59:05.207Z,101110.66
2023-03-02T18:03:07.296Z,101097.75
2023-03-02T18:07:09.950Z,101097.75
2023-03-02T18:11:12.029Z,101096.88
2023-03-02T18:15:14.300Z,101094.31
2023-03-02T18:19:16.414Z,101098.59
2023-03-02T18:23:19.221Z,101094.28
2023-03-02T18:27:21.167Z,101100.25
2023-03-02T18:31:23.420Z,101093.38
2023-03-02T18:35:25.581Z,101096.81
2023-03-02T18:39:27.630Z,101101.94
2023-03-02T18:43:32.751Z,101106.22
2023-03-02T18:47:36.598Z,101095.91
2023-03-02T18:51:38.529Z,101108.72
2023-03-02T18:55:41.167Z,101104.44
2023-03-02T18:59:43.249Z,101101.00
2023-03-02T19:03:46.076Z,101097.50
2023-03-02T19:07:49.992Z,101091.50
2023-03-02T19:11:52.053Z,101090.66
2023-03-02T19:15:54.889Z,101090.63
2023-03-02T19:19:57.135Z,101084.59
2023-03-02T19:23:59.018Z,101090.63
2023-03-02T19:28:01.050Z,101087.16
2023-03-02T19:32:03.390Z,101084.59
2023-03-02T19:36:06.334Z,101088.00
2023-03-02T19:40:09.322Z,101080.25
2023-03-02T19:44:12.591Z,101088.84
2023-03-02T19:48:14.577Z,101092.25
2023-03-02T19:52:16.754Z,101088.78
2023-03-02T19:56:20.009Z,101093.03
2023-03-02T20:00:23.491Z,101087.06
2023-03-02T20:04:25.750Z,101087.03
2023-03-02T20:08:27.952Z,101082.69
2023-03-02T20:12:29.950Z,101087.78
2023-03-02T20:16:35.711Z,101091.19
2023-03-02T20:20:37.871Z,101094.59
2023-03-02T20:24:40.331Z,101085.97
2023-03-02T20:28:42.332Z,101085.94
2023-03-02T20:32:44.577Z,101078.16
2023-03-02T20:36:47.046Z,101087.59
2023-03-02T20:40:49.932Z,101077.31
2023-03-02T20:44:52.450Z,101074.78
2023-03-02T20:48:55.207Z,101071.38
2023-03-02T20:52:57.664Z,101065.31
2023-03-02T20:57:00.966Z,101057.63
2023-03-02T21:01:03.173Z,101053.31
2023-03-02T21:05:06.027Z,101056.75
2023-03-02T21:09:09.213Z,101055.03
2023-03-02T21:13:11.848Z,101048.19
2023-03-02T21:17:14.193Z,101044.69
2023-03-02T21:21:16.609Z,101046.38
2023-03-02T21:25:19.200Z,101047.22
2023-03-02T21:29:24.177Z,101042.81
2023-03-02T21:33:26.521Z,101041.06
2023-03-02T21:37:28.738Z,101038.53
2023-03-02T21:41:30.881Z,101026.56
2023-03-02T21:45:33.334Z,101024.00
2023-03-02T21:49:35.432Z,101021.41
2023-03-02T21:53:37.613Z,101021.38
2023-03-02T21:57:40.625Z,101018.81
2023-03-02T22:01:42.852Z,101020.53
2023-03-02T22:05:44.955Z,101014.56
2023-03-02T22:09:46.993Z,101016.31
2023-03-02T22:13:51.197Z,101009.44
2023-03-02T22:17:55.250Z,101003.50
2023-03-02T22:22:03.105Z,100995.75
2023-03-02T22:26:12.982Z,101004.19
2023-03-02T22:30:23.626Z,101000.00
2023-03-02T22:34:30.615Z,101006.00
2023-03-02T22:38:33.500Z,101015.31
2023-03-02T22:42:35.781Z,101011.81
2023-03-02T22:46:37.897Z,101006.69
2023-03-02T22:50:40.140Z,101003.28
2023-03-02T22:54:42.129Z,101004.97
2023-03-02T22:58:47.559Z,101004.97
2023-03-02T23:02:52.202Z,100993.84
2023-03-02T23:07:02.747Z,100983.56
2023-03-02T23:11:14.885Z,100985.25
2023-03-02T23:15:20.456Z,100986.84
2023-03-02T23:19:22.597Z,100984.22
2023-03-02T23:23:26.607Z,100976.53
2023-03-02T23:27:28.596Z,100974.91
2023-03-02T23:31:30.628Z,100972.28
2023-03-02T23:35:32.720Z,100975.63
2023-03-02T23:39:35.021Z,100975.63
2023-03-02T23:43:37.199Z,100973.09
2023-03-02T23:47:39.293Z,100969.72
2023-03-02T23:51:41.474Z,100955.22
2023-03-02T23:55:54.538Z,100961.16
2023-03-02T23:59:56.527Z,100957.63
